createdAt,value
2023-02-21T00:00:04.506Z,-10
2023-02-21T00:01:10.751Z,-10
2023-02-21T00:02:17.024Z,-10
2023-02-21T00:03:23.287Z,-10
2023-02-21T00:04:29.556Z,-10
2023-02-21T00:05:35.846Z,-10
2023-02-21T00:06:42.104Z,-10
2023-02-21T00:07:48.376Z,-10
2023-02-21T00:08:54.653Z,-10
2023-02-21T00:10:00.932Z,-10
2023-02-21T00:11:07.192Z,-10
2023-02-21T00:12:13.475Z,-10
2023-02-21T00:13:19.742Z,-10
2023-02-21T00:14:25.031Z,-10
2023-02-21T00:15:31.309Z,-10
2023-02-21T00:16:37.601Z,-10
2023-02-21T00:17:43.847Z,-10
2023-02-21T00:18:50.109Z,-10
2023-02-21T00:19:56.393Z,-9
2023-02-21T00:21:02.655Z,-9
2023-02-21T00:22:08.950Z,-10
2023-02-21T00:23:15.199Z,-9
2023-02-21T00:24:21.534Z,-9
2023-02-21T00:25:27.755Z,-9
2023-02-21T00:26:34.096Z,-7
2023-02-21T00:27:40.382Z,-9
2023-02-21T00:28:45.578Z,-9
2023-02-21T00:29:51.946Z,-7
2023-02-21T00:30:58.145Z,-9
2023-02-21T00:32:04.470Z,-9
2023-02-21T00:33:10.746Z,-10
2023-02-21T00:34:16.985Z,-10
2023-02-21T00:35:23.288Z,-9
2023-02-21T00:36:29.486Z,-8
2023-02-21T00:37:35.760Z,-8
2023-02-21T00:38:42.023Z,-10
2023-02-21T00:39:48.320Z,-10
2023-02-21T00:40:54.603Z,-10
2023-02-21T00:42:00.919Z,-9
2023-02-21T00:43:06.201Z,-7
2023-02-21T00:44:12.447Z,-10
2023-02-21T00:45:18.685Z,-10
2023-02-21T00:46:24.956Z,-10
2023-02-21T00:47:31.221Z,-10
2023-02-21T00:48:37.498Z,-10
2023-02-21T00:49:43.764Z,-10
2023-02-21T00:50:50.032Z,-10
2023-02-21T00:51:56.318Z,-10
2023-02-21T00:53:02.592Z,-10
2023-02-21T00:54:08.855Z,-10
2023-02-21T00:55:15.127Z,-10
2023-02-21T00:56:21.399Z,-10
2023-02-21T00:57:26.690Z,-10
2023-02-21T00:58:32.957Z,-10
2023-02-21T01:00:45.507Z,-10
2023-02-21T01:01:51.773Z,-9
2023-02-21T01:02:58.054Z,-8
2023-02-21T01:04:04.323Z,-8
2023-02-21T01:05:10.594Z,-9
2023-02-21T01:06:16.863Z,-10
2023-02-21T01:07:23.143Z,-10
2023-02-21T01:08:29.409Z,-9
2023-02-21T01:09:35.702Z,-9
2023-02-21T01:10:41.962Z,-10
2023-02-21T01:11:47.243Z,-10
2023-02-21T01:12:53.527Z,-8
2023-02-21T01:13:59.797Z,-10
2023-02-21T01:15:06.063Z,-10
2023-02-21T01:16:12.334Z,-10
2023-02-21T01:17:18.605Z,-10
2023-02-21T01:18:24.882Z,-10
2023-02-21T01:19:31.165Z,-10
2023-02-21T01:20:37.453Z,-10
2023-02-21T01:21:43.695Z,-10
2023-02-21T01:22:49.970Z,-10
2023-02-21T01:23:56.235Z,-10
2023-02-21T01:25:02.515Z,-10
2023-02-21T01:26:07.828Z,-10
2023-02-21T01:27:14.087Z,-10
2023-02-21T01:28:20.350Z,-10
2023-02-21T01:29:26.622Z,-10
2023-02-21T01:30:32.885Z,-10
2023-02-21T01:31:39.191Z,-10
2023-02-21T01:32:45.441Z,-10
2023-02-21T01:33:51.707Z,-10
2023-02-21T01:34:57.978Z,-10
2023-02-21T01:36:04.253Z,-10
2023-02-21T01:37:10.520Z,-10
2023-02-21T01:38:16.832Z,-10
2023-02-21T01:39:23.068Z,-10
2023-02-21T01:40:28.360Z,-10
2023-02-21T01:41:34.627Z,-10
2023-02-21T01:42:40.897Z,-10
2023-02-21T01:43:47.204Z,-10
2023-02-21T01:44:53.447Z,-10
2023-02-21T01:45:59.717Z,-10
2023-02-21T01:47:06.012Z,-8
2023-02-21T01:48:12.268Z,-10
2023-02-21T01:49:18.556Z,-10
2023-02-21T01:50:24.821Z,-10
2023-02-21T01:51:31.075Z,-10
2023-02-21T01:52:37.361Z,-10
2023-02-21T01:53:42.649Z,-10
2023-02-21T01:54:47.945Z,-10
2023-02-21T01:55:53.242Z,-10
2023-02-21T01:56:58.538Z,-10
2023-02-21T01:58:04.802Z,-10
2023-02-21T01:59:11.072Z,-7
2023-02-21T02:00:17.345Z,-7
2023-02-21T02:01:23.606Z,-8
2023-02-21T02:02:29.919Z,-9
2023-02-21T02:03:36.160Z,-10
2023-02-21T02:04:42.436Z,-10
2023-02-21T02:05:48.736Z,-10
2023-02-21T02:06:54.974Z,-10
2023-02-21T02:08:01.260Z,-10
2023-02-21T02:09:07.530Z,-10
2023-02-21T02:10:13.796Z,-10
2023-02-21T02:11:19.077Z,-10
2023-02-21T02:12:25.374Z,-10
2023-02-21T02:13:31.625Z,-10
2023-02-21T02:14:37.902Z,-10
2023-02-21T02:15:44.172Z,-9
2023-02-21T02:16:50.445Z,-10
2023-02-21T02:17:56.711Z,-10
2023-02-21T02:19:02.991Z,-10
2023-02-21T02:20:09.258Z,-10
2023-02-21T02:21:15.528Z,-10
2023-02-21T02:22:21.863Z,-10
2023-02-21T02:23:28.084Z,-10
2023-02-21T02:24:34.354Z,-10
2023-02-21T02:25:39.650Z,-10
2023-02-21T02:26:45.912Z,-10
2023-02-21T02:27:52.205Z,-10
2023-02-21T02:28:58.455Z,-10
2023-02-21T02:30:04.754Z,-10
2023-02-21T02:31:10.995Z,-10
2023-02-21T02:32:17.267Z,-10
2023-02-21T02:33:23.542Z,-10
2023-02-21T02:34:29.812Z,-10
2023-02-21T02:35:36.087Z,-10
2023-02-21T02:36:42.370Z,-10
2023-02-21T02:37:48.631Z,-10
2023-02-21T02:38:54.909Z,-10
2023-02-21T02:40:00.208Z,-10
2023-02-21T02:41:06.468Z,-10
2023-02-21T02:42:12.741Z,-10
2023-02-21T02:43:19.012Z,-10
2023-02-21T02:44:25.285Z,-10
2023-02-21T02:45:31.557Z,-10
2023-02-21T02:46:37.814Z,-10
2023-02-21T02:47:44.103Z,-10
2023-02-21T02:48:50.370Z,-10
2023-02-21T02:49:56.638Z,-10
2023-02-21T02:51:02.917Z,-10
2023-02-21T02:52:09.182Z,-10
2023-02-21T02:53:15.454Z,-10
2023-02-21T02:54:21.728Z,-10
2023-02-21T02:55:27.025Z,-10
2023-02-21T02:56:33.289Z,-10
2023-02-21T02:57:39.564Z,-10
2023-02-21T02:58:45.834Z,-10
2023-02-21T02:59:52.103Z,-10
2023-02-21T03:00:58.374Z,-10
2023-02-21T03:02:04.658Z,-10
2023-02-21T03:03:10.915Z,-10
2023-02-21T03:04:17.210Z,-10
2023-02-21T03:05:23.461Z,-10
2023-02-21T03:06:29.730Z,-10
2023-02-21T03:07:36.008Z,-10
2023-02-21T03:08:42.282Z,-10
2023-02-21T03:09:47.574Z,-10
2023-02-21T03:10:53.844Z,-10
2023-02-21T03:12:00.136Z,-10
2023-02-21T03:13:06.391Z,-10
2023-02-21T03:14:12.656Z,-10
2023-02-21T03:15:18.929Z,-10
2023-02-21T03:16:25.220Z,-10
2023-02-21T03:17:31.473Z,-10
2023-02-21T03:18:37.745Z,-9
2023-02-21T03:19:44.015Z,-9
2023-02-21T03:20:50.299Z,-10
2023-02-21T03:21:56.557Z,-10
2023-02-21T03:23:02.834Z,-9
2023-02-21T03:24:08.143Z,-8
2023-02-21T03:25:14.398Z,-9
2023-02-21T03:26:19.681Z,-10
2023-02-21T03:27:25.954Z,-10
2023-02-21T03:28:32.280Z,-9
2023-02-21T03:29:38.503Z,-10
2023-02-21T03:30:44.781Z,-10
2023-02-21T03:31:51.054Z,-10
2023-02-21T03:32:57.322Z,-10
2023-02-21T03:34:03.616Z,-10
2023-02-21T03:35:09.862Z,-10
2023-02-21T03:36:16.144Z,-10
2023-02-21T03:37:22.454Z,-8
2023-02-21T03:38:28.691Z,-10
2023-02-21T03:39:34.994Z,-10
2023-02-21T03:40:40.244Z,-10
2023-02-21T03:41:46.516Z,-9
2023-02-21T03:42:52.786Z,-7
2023-02-21T03:43:59.070Z,-10
2023-02-21T03:45:05.333Z,-7
2023-02-21T03:46:11.599Z,-8
2023-02-21T03:47:17.874Z,-8
2023-02-21T03:48:24.135Z,-6
2023-02-21T03:49:30.419Z,-7
2023-02-21T03:50:36.693Z,-7
2023-02-21T03:51:42.958Z,-3
2023-02-21T03:52:49.256Z,-6
2023-02-21T03:53:55.517Z,-10
2023-02-21T03:55:00.805Z,-10
2023-02-21T03:56:07.069Z,-8
2023-02-21T03:57:13.336Z,-7
2023-02-21T03:58:19.619Z,-7
2023-02-21T03:59:25.892Z,-6
2023-02-21T04:00:32.170Z,-2
2023-02-21T04:01:38.452Z,-4
2023-02-21T04:02:44.712Z,-3
2023-02-21T04:03:50.977Z,-2
2023-02-21T04:04:57.251Z,-4
2023-02-21T04:06:03.535Z,-4
2023-02-21T04:07:09.793Z,-2
2023-02-21T04:08:16.072Z,-6
2023-02-21T04:09:21.348Z,-5
2023-02-21T04:10:27.622Z,-2
2023-02-21T04:11:33.921Z,-1
2023-02-21T04:12:40.175Z,-4
2023-02-21T04:13:46.440Z,0
2023-02-21T04:14:52.715Z,-2
2023-02-21T04:15:58.987Z,-2
2023-02-21T04:17:05.262Z,-3
2023-02-21T04:18:11.541Z,-4
2023-02-21T04:19:17.866Z,-5
2023-02-21T04:20:24.087Z,-4
2023-02-21T04:21:30.356Z,-1
2023-02-21T04:22:36.636Z,-2
2023-02-21T04:23:41.908Z,0
2023-02-21T04:24:48.189Z,0
2023-02-21T04:25:54.485Z,-3
2023-02-21T04:27:00.731Z,-2
2023-02-21T04:28:07.004Z,0
2023-02-21T04:29:13.282Z,-2
2023-02-21T04:30:19.545Z,-4
2023-02-21T04:31:25.822Z,-5
2023-02-21T04:32:32.095Z,-2
2023-02-21T04:33:38.360Z,-10
2023-02-21T04:34:44.637Z,-8
2023-02-21T04:35:50.908Z,-4
2023-02-21T04:38:03.458Z,-10
2023-02-21T04:39:08.742Z,-10
2023-02-21T04:40:15.020Z,-8
2023-02-21T04:41:21.287Z,-9
2023-02-21T04:42:27.566Z,-10
2023-02-21T04:43:33.830Z,-10
2023-02-21T04:44:40.112Z,-10
2023-02-21T04:45:46.382Z,-10
2023-02-21T04:46:52.648Z,-10
2023-02-21T04:47:58.920Z,-10
2023-02-21T04:49:05.196Z,-9
2023-02-21T04:50:11.474Z,-10
2023-02-21T04:51:17.739Z,-10
2023-02-21T04:52:24.018Z,-10
2023-02-21T04:53:29.303Z,-10
2023-02-21T04:54:35.576Z,-10
2023-02-21T04:55:41.860Z,-10
2023-02-21T04:56:48.116Z,-10
2023-02-21T04:57:54.392Z,-10
2023-02-21T04:59:00.661Z,-9
2023-02-21T05:00:06.937Z,-10
2023-02-21T05:01:13.209Z,-8
2023-02-21T05:02:19.482Z,-4
2023-02-21T05:03:25.769Z,-2
2023-02-21T05:04:32.032Z,-1
2023-02-21T05:05:38.295Z,0
2023-02-21T05:06:44.578Z,5
2023-02-21T05:07:49.855Z,2
2023-02-21T05:08:56.195Z,0
2023-02-21T05:10:02.391Z,2
2023-02-21T05:11:08.668Z,4
2023-02-21T05:12:14.949Z,5
2023-02-21T05:13:21.245Z,8
2023-02-21T05:14:27.501Z,12
2023-02-21T05:15:33.762Z,17
2023-02-21T05:16:40.041Z,13
2023-02-21T05:17:46.309Z,15
2023-02-21T05:18:52.629Z,15
2023-02-21T05:19:58.855Z,22
2023-02-21T05:21:05.120Z,24
2023-02-21T05:22:11.401Z,18
2023-02-21T05:23:16.707Z,11
2023-02-21T05:24:22.960Z,12
2023-02-21T05:25:29.224Z,4
2023-02-21T05:26:35.524Z,3
2023-02-21T05:27:41.778Z,11
2023-02-21T05:28:48.056Z,14
2023-02-21T05:29:54.349Z,13
2023-02-21T05:31:00.597Z,12
2023-02-21T05:32:06.876Z,3
2023-02-21T05:33:13.142Z,4
2023-02-21T05:34:18.439Z,5
2023-02-21T05:35:23.719Z,6
2023-02-21T05:36:30.003Z,8
2023-02-21T05:37:35.298Z,3
2023-02-21T05:38:40.586Z,0
2023-02-21T05:39:46.857Z,1
2023-02-21T05:40:53.130Z,3
2023-02-21T05:41:59.411Z,5
2023-02-21T05:43:05.697Z,5
2023-02-21T05:44:11.940Z,10
2023-02-21T05:45:18.220Z,10
2023-02-21T05:46:24.486Z,10
2023-02-21T05:47:30.770Z,15
2023-02-21T05:48:37.033Z,15
2023-02-21T05:49:43.303Z,14
2023-02-21T05:50:49.582Z,12
2023-02-21T05:51:55.851Z,4
2023-02-21T05:53:01.141Z,4
2023-02-21T05:54:07.408Z,1
2023-02-21T05:55:13.686Z,-4
2023-02-21T05:56:20.073Z,-4
2023-02-21T05:57:26.237Z,-3
2023-02-21T05:58:32.499Z,-4
2023-02-21T05:59:38.784Z,-6
2023-02-21T06:00:44.076Z,-9
2023-02-21T06:01:49.360Z,-7
2023-02-21T06:02:55.636Z,-8
2023-02-21T06:04:00.939Z,-6
2023-02-21T06:05:06.225Z,-5
2023-02-21T06:06:12.496Z,-9
2023-02-21T06:07:18.791Z,-10
2023-02-21T06:08:25.031Z,-10
2023-02-21T06:09:31.310Z,-10
2023-02-21T06:10:37.580Z,-10
2023-02-21T06:11:43.869Z,-10
2023-02-21T06:12:50.123Z,-10
2023-02-21T06:13:56.398Z,-10
2023-02-21T06:15:02.685Z,-10
2023-02-21T06:16:08.940Z,-10
2023-02-21T06:17:15.215Z,-10
2023-02-21T06:18:21.484Z,-10
2023-02-21T06:19:26.777Z,-10
2023-02-21T06:20:33.038Z,-10
2023-02-21T06:21:39.328Z,-10
2023-02-21T06:22:45.603Z,-10
2023-02-21T06:23:51.859Z,-10
2023-02-21T06:24:58.143Z,-10
2023-02-21T06:26:04.408Z,-10
2023-02-21T06:27:10.686Z,-10
2023-02-21T06:28:16.953Z,-10
2023-02-21T06:29:23.233Z,-10
2023-02-21T06:30:29.504Z,-10
2023-02-21T06:31:35.778Z,-10
2023-02-21T06:32:42.058Z,-10
2023-02-21T06:33:47.393Z,-10
2023-02-21T06:34:53.607Z,-10
2023-02-21T06:35:59.881Z,-10
2023-02-21T06:37:06.153Z,-10
2023-02-21T06:38:12.424Z,-10
2023-02-21T06:39:18.719Z,-10
2023-02-21T06:40:24.001Z,-10
2023-02-21T06:41:29.299Z,-10
2023-02-21T06:42:35.564Z,-10
2023-02-21T06:43:40.863Z,-10
2023-02-21T06:44:47.137Z,-10
2023-02-21T06:45:53.420Z,-10
2023-02-21T06:46:58.706Z,-10
2023-02-21T06:48:04.977Z,-10
2023-02-21T06:49:11.247Z,-10
2023-02-21T06:50:17.511Z,-10
2023-02-21T06:51:23.790Z,-10
2023-02-21T06:52:30.067Z,-10
2023-02-21T06:53:36.392Z,-10
2023-02-21T06:54:42.609Z,-10
2023-02-21T06:55:48.883Z,-10
2023-02-21T06:56:55.153Z,-10
2023-02-21T06:58:01.422Z,-10
2023-02-21T06:59:07.710Z,-10
2023-02-21T07:00:14.077Z,-10
2023-02-21T07:01:19.256Z,-10
2023-02-21T07:02:25.528Z,-10
2023-02-21T07:03:31.805Z,-10
2023-02-21T07:04:38.079Z,-10
2023-02-21T07:05:44.400Z,-10
2023-02-21T07:06:49.646Z,-10
2023-02-21T07:07:54.937Z,-10
2023-02-21T07:09:01.209Z,-10
2023-02-21T07:10:07.484Z,-10
2023-02-21T07:11:12.800Z,-10
2023-02-21T07:12:18.106Z,-10
2023-02-21T07:13:24.363Z,-10
2023-02-21T07:14:30.619Z,-10
2023-02-21T07:15:36.888Z,-10
2023-02-21T07:16:43.165Z,-10
2023-02-21T07:17:49.448Z,-10
2023-02-21T07:18:55.730Z,-10
2023-02-21T07:20:01.982Z,-10
2023-02-21T07:21:08.252Z,-10
2023-02-21T07:22:14.524Z,-10
2023-02-21T07:23:20.800Z,-10
2023-02-21T07:24:27.061Z,-10
2023-02-21T07:25:33.349Z,-10
2023-02-21T07:26:38.641Z,-10
2023-02-21T07:27:44.941Z,-10
2023-02-21T07:28:51.174Z,-10
2023-02-21T07:29:57.445Z,-10
2023-02-21T07:31:03.719Z,-10
2023-02-21T07:32:09.987Z,-10
2023-02-21T07:33:16.263Z,-10
2023-02-21T07:34:21.584Z,-10
2023-02-21T07:35:26.851Z,-10
2023-02-21T07:36:32.206Z,-10
2023-02-21T07:37:37.439Z,-10
2023-02-21T07:38:43.776Z,-10
2023-02-21T07:39:50.005Z,-10
2023-02-21T07:40:56.269Z,-10
2023-02-21T07:42:02.535Z,-10
2023-02-21T07:43:08.811Z,-10
2023-02-21T07:44:15.078Z,-10
2023-02-21T07:45:21.345Z,-10
2023-02-21T07:46:27.612Z,-10
2023-02-21T07:47:33.902Z,-10
2023-02-21T07:48:40.164Z,-10
2023-02-21T07:49:46.436Z,-10
2023-02-21T07:50:52.717Z,-10
2023-02-21T07:51:58.992Z,-10
2023-02-21T07:53:04.312Z,-10
2023-02-21T07:54:10.544Z,-10
2023-02-21T07:55:16.836Z,-10
2023-02-21T07:56:23.096Z,-10
2023-02-21T07:57:29.355Z,-10
2023-02-21T07:58:35.640Z,-10
2023-02-21T07:59:40.930Z,-10
2023-02-21T08:00:46.231Z,-10
2023-02-21T08:01:52.516Z,-10
2023-02-21T08:02:57.796Z,-10
2023-02-21T08:04:03.098Z,-10
2023-02-21T08:05:09.360Z,-10
2023-02-21T08:06:15.636Z,-10
2023-02-21T08:07:21.909Z,-10
2023-02-21T08:08:28.188Z,-10
2023-02-21T08:09:34.444Z,-10
2023-02-21T08:10:40.719Z,-10
2023-02-21T08:11:47.009Z,-10
2023-02-21T08:12:53.264Z,-10
2023-02-21T08:13:59.530Z,-10
2023-02-21T08:15:05.806Z,-10
2023-02-21T08:16:12.075Z,-10
2023-02-21T08:17:18.416Z,-10
2023-02-21T08:18:23.679Z,-10
2023-02-21T08:19:29.910Z,-10
2023-02-21T08:20:36.177Z,-10
2023-02-21T08:21:42.484Z,-10
2023-02-21T08:22:48.724Z,-10
2023-02-21T08:23:55.000Z,-10
2023-02-21T08:25:01.347Z,-10
2023-02-21T08:26:06.575Z,-10
2023-02-21T08:27:11.887Z,-10
2023-02-21T08:28:18.241Z,-10
2023-02-21T08:29:24.528Z,-10
2023-02-21T08:30:29.689Z,-10
2023-02-21T08:31:34.991Z,-10
2023-02-21T08:32:41.293Z,-10
2023-02-21T08:33:47.562Z,-10
2023-02-21T08:34:53.807Z,-10
2023-02-21T08:36:00.185Z,-10
2023-02-21T08:37:06.355Z,-10
2023-02-21T08:38:12.722Z,-10
2023-02-21T08:39:18.926Z,-10
2023-02-21T08:40:25.172Z,-10
2023-02-21T08:41:31.439Z,-10
2023-02-21T08:42:37.716Z,-10
2023-02-21T08:43:43.997Z,-10
2023-02-21T08:44:50.282Z,-10
2023-02-21T08:45:55.695Z,-10
2023-02-21T08:47:01.991Z,-10
2023-02-21T08:48:08.170Z,-10
2023-02-21T08:49:14.438Z,-10
2023-02-21T08:50:20.647Z,-10
2023-02-21T08:51:26.911Z,-10
2023-02-21T08:52:33.183Z,-10
2023-02-21T08:53:39.447Z,-10
2023-02-21T08:54:45.723Z,-10
2023-02-21T08:55:51.996Z,-10
2023-02-21T08:56:58.287Z,-10
2023-02-21T08:58:04.545Z,-10
2023-02-21T08:59:10.812Z,-10
2023-02-21T09:00:16.101Z,-10
2023-02-21T09:01:22.429Z,-10
2023-02-21T09:02:28.677Z,-10
2023-02-21T09:03:34.918Z,-10
2023-02-21T09:04:41.195Z,-10
2023-02-21T09:05:47.473Z,-10
2023-02-21T09:06:53.734Z,-10
2023-02-21T09:08:00.030Z,-10
2023-02-21T09:09:06.301Z,-10
2023-02-21T09:10:12.582Z,-10
2023-02-21T09:11:18.831Z,-10
2023-02-21T09:12:25.098Z,-10
2023-02-21T09:13:31.373Z,-10
2023-02-21T09:14:36.658Z,-10
2023-02-21T09:15:42.936Z,-10
2023-02-21T09:16:49.208Z,-10
2023-02-21T09:17:55.477Z,-10
2023-02-21T09:19:01.749Z,-10
2023-02-21T09:20:08.034Z,-10
2023-02-21T09:21:13.321Z,-10
2023-02-21T09:22:18.650Z,-10
2023-02-21T09:23:24.885Z,-10
2023-02-21T09:24:30.184Z,-10
2023-02-21T09:25:35.583Z,-10
2023-02-21T09:26:41.736Z,-10
2023-02-21T09:27:48.193Z,-10
2023-02-21T09:28:54.286Z,-10
2023-02-21T09:30:00.555Z,-10
2023-02-21T09:31:06.818Z,-10
2023-02-21T09:32:13.111Z,-10
2023-02-21T09:33:19.376Z,-10
2023-02-21T09:34:25.643Z,-10
2023-02-21T09:35:31.917Z,-10
2023-02-21T09:36:38.191Z,-10
2023-02-21T09:37:44.467Z,-10
2023-02-21T09:38:50.836Z,-10
2023-02-21T09:39:56.156Z,-10
2023-02-21T09:41:02.449Z,-10
2023-02-21T09:42:08.643Z,-10
2023-02-21T09:43:14.875Z,-10
2023-02-21T09:44:21.113Z,-10
2023-02-21T09:45:27.405Z,-10
2023-02-21T09:46:33.656Z,-10
2023-02-21T09:47:38.957Z,-10
2023-02-21T09:48:45.239Z,-10
2023-02-21T09:49:50.522Z,-10
2023-02-21T09:50:56.823Z,-10
2023-02-21T09:52:03.082Z,-10
2023-02-21T09:53:09.332Z,-10
2023-02-21T09:54:15.602Z,-10
2023-02-21T09:55:21.883Z,-10
2023-02-21T09:56:28.148Z,-10
2023-02-21T09:57:34.421Z,-10
2023-02-21T09:58:40.691Z,-10
2023-02-21T09:59:45.996Z,-10
2023-02-21T10:00:51.279Z,-10
2023-02-21T10:01:57.607Z,-10
2023-02-21T10:03:03.837Z,-10
2023-02-21T10:04:10.228Z,-10
2023-02-21T10:05:16.441Z,-10
2023-02-21T10:06:22.827Z,-10
2023-02-21T10:07:29.030Z,-10
2023-02-21T10:08:35.197Z,-10
2023-02-21T10:09:41.459Z,-10
2023-02-21T10:10:47.715Z,-10
2023-02-21T10:11:53.990Z,-10
2023-02-21T10:13:00.261Z,-10
2023-02-21T10:14:06.546Z,-10
2023-02-21T10:15:11.845Z,-10
2023-02-21T10:16:18.094Z,-10
2023-02-21T10:17:24.378Z,-10
2023-02-21T10:18:30.642Z,-10
2023-02-21T10:19:37.016Z,-10
2023-02-21T10:20:43.382Z,-10
2023-02-21T10:21:49.590Z,-10
2023-02-21T10:22:55.874Z,-10
2023-02-21T10:24:02.126Z,-10
2023-02-21T10:25:08.274Z,-10
2023-02-21T10:26:14.538Z,-10
2023-02-21T10:27:20.887Z,-10
2023-02-21T10:28:27.089Z,-10
2023-02-21T10:29:32.377Z,-8
2023-02-21T10:30:38.695Z,-10
2023-02-21T10:31:44.916Z,-10
2023-02-21T10:32:51.186Z,-10
2023-02-21T10:33:57.473Z,-10
2023-02-21T10:35:03.738Z,-10
2023-02-21T10:36:10.006Z,-10
2023-02-21T10:37:16.277Z,-10
2023-02-21T10:38:22.564Z,-9
2023-02-21T10:39:28.829Z,-10
2023-02-21T10:40:35.086Z,-10
2023-02-21T10:41:41.360Z,-10
2023-02-21T10:42:47.649Z,-10
2023-02-21T10:43:52.930Z,-10
2023-02-21T10:44:59.304Z,-9
2023-02-21T10:46:05.468Z,-10
2023-02-21T10:47:11.877Z,-9
2023-02-21T10:48:18.031Z,-10
2023-02-21T10:49:23.338Z,-9
2023-02-21T10:50:29.579Z,-9
2023-02-21T10:51:35.848Z,-9
2023-02-21T10:52:42.141Z,-9
2023-02-21T10:53:48.462Z,-8
2023-02-21T10:54:54.678Z,-9
2023-02-21T10:56:00.952Z,-10
2023-02-21T10:57:07.399Z,-9
2023-02-21T10:58:13.473Z,-9
2023-02-21T10:59:19.744Z,-9
2023-02-21T11:00:26.160Z,-8
2023-02-21T11:01:32.298Z,-9
2023-02-21T11:02:38.782Z,-8
2023-02-21T11:03:44.853Z,-8
2023-02-21T11:04:50.119Z,-9
2023-02-21T11:05:56.391Z,-9
2023-02-21T11:07:02.685Z,-9
2023-02-21T11:08:08.940Z,-9
2023-02-21T11:09:15.231Z,-9
2023-02-21T11:10:21.482Z,-9
2023-02-21T11:11:27.834Z,-8
2023-02-21T11:12:34.121Z,-8
2023-02-21T11:14:46.650Z,-8
2023-02-21T11:15:52.937Z,-9
2023-02-21T11:16:59.104Z,-9
2023-02-21T11:18:05.373Z,-8
2023-02-21T11:19:10.672Z,-9
2023-02-21T11:20:16.963Z,-8
2023-02-21T11:21:23.207Z,-9
2023-02-21T11:22:29.600Z,-8
2023-02-21T11:23:35.745Z,-9
2023-02-21T11:24:42.023Z,-10
2023-02-21T11:25:48.306Z,-10
2023-02-21T11:26:54.565Z,-9
2023-02-21T11:28:00.835Z,-9
2023-02-21T11:29:07.105Z,-9
2023-02-21T11:31:19.659Z,-9
2023-02-21T11:32:25.926Z,-9
2023-02-21T11:33:31.215Z,-10
2023-02-21T11:34:37.489Z,-10
2023-02-21T11:35:43.759Z,-10
2023-02-21T11:36:50.026Z,-10
2023-02-21T11:37:56.298Z,-10
2023-02-21T11:39:02.587Z,-10
2023-02-21T11:40:08.849Z,-10
2023-02-21T11:41:15.127Z,-10
2023-02-21T11:42:21.401Z,-10
2023-02-21T11:43:26.692Z,-10
2023-02-21T11:44:31.990Z,-10
2023-02-21T11:45:38.261Z,-10
2023-02-21T11:46:44.526Z,-10
2023-02-21T11:47:50.805Z,-10
2023-02-21T11:48:56.104Z,-10
2023-02-21T11:50:01.397Z,-10
2023-02-21T11:51:07.659Z,-10
2023-02-21T11:52:13.949Z,-10
2023-02-21T11:53:20.224Z,-10
2023-02-21T11:54:26.492Z,-10
2023-02-21T11:55:32.764Z,-10
2023-02-21T11:56:39.025Z,-10
2023-02-21T11:57:45.290Z,-10
2023-02-21T11:58:51.560Z,-10
2023-02-21T11:59:57.840Z,-10
2023-02-21T12:01:04.131Z,-10
2023-02-21T12:02:10.375Z,-9
2023-02-21T12:03:16.649Z,-9
2023-02-21T12:04:21.936Z,-10
2023-02-21T12:05:28.207Z,-10
2023-02-21T12:06:34.486Z,-10
2023-02-21T12:07:40.756Z,-9
2023-02-21T12:08:47.027Z,-8
2023-02-21T12:09:53.300Z,-9
2023-02-21T12:10:59.564Z,-9
2023-02-21T12:12:04.890Z,-10
2023-02-21T12:13:10.149Z,-9
2023-02-21T12:14:15.473Z,-9
2023-02-21T12:15:20.750Z,-9
2023-02-21T12:16:27.009Z,-9
2023-02-21T12:17:33.291Z,-10
2023-02-21T12:18:39.555Z,-10
2023-02-21T12:19:45.831Z,-10
2023-02-21T12:20:52.098Z,-10
2023-02-21T12:21:58.384Z,-10
2023-02-21T12:23:04.640Z,-10
2023-02-21T12:24:10.911Z,-10
2023-02-21T12:25:17.197Z,-10
2023-02-21T12:26:23.461Z,-10
2023-02-21T12:27:29.740Z,-10
2023-02-21T12:28:36.003Z,-10
2023-02-21T12:29:41.305Z,-10
2023-02-21T12:30:47.564Z,-10
2023-02-21T12:31:53.824Z,-10
2023-02-21T12:33:00.120Z,-10
2023-02-21T12:34:06.375Z,-10
2023-02-21T12:35:12.725Z,-10
2023-02-21T12:36:18.974Z,-10
2023-02-21T12:37:25.198Z,-10
2023-02-21T12:38:31.475Z,-10
2023-02-21T12:39:37.738Z,-10
2023-02-21T12:40:44.017Z,-10
2023-02-21T12:41:50.287Z,-10
2023-02-21T12:42:56.569Z,-10
2023-02-21T12:44:01.845Z,-10
2023-02-21T12:45:08.122Z,-10
2023-02-21T12:46:14.389Z,-10
2023-02-21T12:47:19.702Z,-10
2023-02-21T12:48:24.990Z,-10
2023-02-21T12:49:30.276Z,-10
2023-02-21T12:50:35.565Z,-10
2023-02-21T12:51:41.840Z,-10
2023-02-21T12:52:48.108Z,-10
2023-02-21T12:53:54.398Z,-10
2023-02-21T12:55:00.656Z,-10
2023-02-21T12:56:06.927Z,-10
2023-02-21T12:57:13.189Z,-10
2023-02-21T12:58:19.463Z,-10
2023-02-21T12:59:25.824Z,-10
2023-02-21T13:00:32.004Z,-10
2023-02-21T13:01:38.287Z,-10
2023-02-21T13:02:44.562Z,-10
2023-02-21T13:03:50.834Z,-10
2023-02-21T13:04:56.106Z,-10
2023-02-21T13:06:02.380Z,-10
2023-02-21T13:07:08.650Z,-10
2023-02-21T13:08:14.939Z,-10
2023-02-21T13:09:21.230Z,-10
2023-02-21T13:10:27.481Z,-10
2023-02-21T13:11:33.752Z,-10
2023-02-21T13:12:39.041Z,-10
2023-02-21T13:13:44.351Z,-10
2023-02-21T13:14:50.614Z,-10
2023-02-21T13:15:56.878Z,-10
2023-02-21T13:17:03.153Z,-10
2023-02-21T13:18:09.433Z,-10
2023-02-21T13:19:15.689Z,-10
2023-02-21T13:20:21.001Z,-10
2023-02-21T13:21:26.298Z,-10
2023-02-21T13:22:32.548Z,-10
2023-02-21T13:23:38.831Z,-10
2023-02-21T13:24:45.104Z,-10
2023-02-21T13:25:51.377Z,-10
2023-02-21T13:26:57.648Z,-10
2023-02-21T13:28:03.917Z,-10
2023-02-21T13:29:10.203Z,-10
2023-02-21T13:30:16.465Z,-10
2023-02-21T13:31:22.732Z,-10
2023-02-21T13:32:29.019Z,-10
2023-02-21T13:33:35.337Z,-10
2023-02-21T13:34:41.556Z,-10
2023-02-21T13:35:46.845Z,-10
2023-02-21T13:36:53.118Z,-10
2023-02-21T13:37:59.390Z,-10
2023-02-21T13:39:05.656Z,-10
2023-02-21T13:40:11.934Z,-10
2023-02-21T13:41:18.230Z,-10
2023-02-21T13:42:24.467Z,-10
2023-02-21T13:43:29.779Z,-10
2023-02-21T13:44:35.118Z,-10
2023-02-21T13:45:41.332Z,-10
2023-02-21T13:46:46.632Z,-10
2023-02-21T13:47:52.909Z,-10
2023-02-21T13:48:58.190Z,-10
2023-02-21T13:50:04.469Z,-10
2023-02-21T13:51:10.735Z,-10
2023-02-21T13:52:17.008Z,-10
2023-02-21T13:53:23.283Z,-10
2023-02-21T13:54:29.552Z,-10
2023-02-21T13:55:35.839Z,-10
2023-02-21T13:56:42.097Z,-10
2023-02-21T13:57:48.373Z,-10
2023-02-21T13:58:54.665Z,-10
2023-02-21T14:00:00.947Z,-10
2023-02-21T14:01:07.168Z,-10
2023-02-21T14:02:13.454Z,-10
2023-02-21T14:03:18.760Z,-10
2023-02-21T14:04:25.020Z,-10
2023-02-21T14:05:31.371Z,-10
2023-02-21T14:06:37.554Z,-10
2023-02-21T14:07:43.832Z,-10
2023-02-21T14:08:50.098Z,-10
2023-02-21T14:09:55.407Z,-10
2023-02-21T14:11:00.694Z,-10
2023-02-21T14:12:05.982Z,-10
2023-02-21T14:13:11.271Z,-10
2023-02-21T14:14:17.544Z,-10
2023-02-21T14:15:23.820Z,-10
2023-02-21T14:16:30.080Z,-10
2023-02-21T14:17:36.362Z,-10
2023-02-21T14:18:42.634Z,-10
2023-02-21T14:19:48.974Z,-10
2023-02-21T14:20:55.171Z,-10
2023-02-21T14:22:01.444Z,-10
2023-02-21T14:23:07.716Z,-10
2023-02-21T14:24:13.999Z,-10
2023-02-21T14:25:20.253Z,-10
2023-02-21T14:26:26.539Z,-10
2023-02-21T14:27:31.820Z,-10
2023-02-21T14:28:38.095Z,-10
2023-02-21T14:29:44.385Z,-10
2023-02-21T14:30:49.648Z,-10
2023-02-21T14:31:55.932Z,-10
2023-02-21T14:33:02.203Z,-10
2023-02-21T14:34:08.482Z,-10
2023-02-21T14:35:13.770Z,-10
2023-02-21T14:36:19.060Z,-10
2023-02-21T14:37:25.351Z,-10
2023-02-21T14:38:31.604Z,-10
2023-02-21T14:39:37.875Z,-10
2023-02-21T14:40:44.151Z,-10
2023-02-21T14:41:50.461Z,-10
2023-02-21T14:42:56.687Z,-10
2023-02-21T14:44:02.967Z,-10
2023-02-21T14:45:09.237Z,-10
2023-02-21T14:46:15.504Z,-10
2023-02-21T14:47:21.796Z,-10
2023-02-21T14:48:28.079Z,-10
2023-02-21T14:49:34.324Z,-10
2023-02-21T14:50:39.599Z,-10
2023-02-21T14:51:45.878Z,-10
2023-02-21T14:52:52.152Z,-10
2023-02-21T14:53:58.421Z,-10
2023-02-21T14:55:04.689Z,-10
2023-02-21T14:56:10.968Z,-10
2023-02-21T14:57:17.236Z,-10
2023-02-21T14:58:22.540Z,-10
2023-02-21T14:59:27.824Z,-10
2023-02-21T15:00:33.124Z,-10
2023-02-21T15:01:38.412Z,-10
2023-02-21T15:02:44.679Z,-10
2023-02-21T15:03:50.954Z,-10
2023-02-21T15:04:57.227Z,-10
2023-02-21T15:06:03.497Z,-10
2023-02-21T15:07:09.774Z,-10
2023-02-21T15:08:16.044Z,-10
2023-02-21T15:09:22.313Z,-10
2023-02-21T15:10:28.577Z,-10
2023-02-21T15:11:34.853Z,-10
2023-02-21T15:12:41.123Z,-10
2023-02-21T15:13:47.394Z,-10
2023-02-21T15:14:53.712Z,-10
2023-02-21T15:15:58.950Z,-10
2023-02-21T15:17:05.229Z,-10
2023-02-21T15:18:11.495Z,-10
2023-02-21T15:19:17.769Z,-10
2023-02-21T15:20:24.051Z,-10
2023-02-21T15:21:30.312Z,-10
2023-02-21T15:22:36.587Z,-10